createdAt,value
2023-02-22T00:01:56.674Z,80.03
2023-02-22T00:04:24.417Z,79.97
2023-02-22T00:06:52.286Z,80.02
2023-02-22T00:09:21.742Z,80.04
2023-02-22T00:11:49.480Z,80.13
2023-02-22T00:14:18.971Z,80.23
2023-02-22T00:16:46.738Z,80.34
2023-02-22T00:19:14.578Z,80.33
2023-02-22T00:21:44.352Z,80.40
2023-02-22T00:24:24.230Z,80.60
2023-02-22T00:26:57.231Z,80.62
2023-02-22T00:29:25.692Z,80.90
2023-02-22T00:31:53.781Z,80.79
2023-02-22T00:34:23.622Z,80.87
2023-02-22T00:36:51.321Z,80.86
2023-02-22T00:39:18.644Z,80.90
2023-02-22T00:41:46.505Z,80.96
2023-02-22T00:44:14.246Z,81.00
2023-02-22T00:46:42.151Z,81.10
2023-02-22T00:51:36.268Z,81.09
2023-02-22T00:54:04.913Z,81.14
2023-02-22T00:56:34.088Z,81.13
2023-02-22T00:59:01.758Z,81.08
2023-02-22T01:01:31.655Z,81.07
2023-02-22T01:03:59.539Z,81.02
2023-02-22T01:06:30.252Z,81.01
2023-02-22T01:11:26.573Z,81.00
2023-02-22T01:16:22.362Z,80.95
2023-02-22T01:18:51.356Z,80.85
2023-02-22T01:21:18.651Z,80.77
2023-02-22T01:23:47.011Z,80.65
2023-02-22T01:26:17.139Z,80.68
2023-02-22T01:28:44.952Z,80.63
2023-02-22T01:31:12.800Z,80.71
2023-02-22T01:33:40.993Z,80.70
2023-02-22T01:36:10.883Z,80.73
2023-02-22T01:38:39.330Z,80.72
2023-02-22T01:41:07.386Z,80.68
2023-02-22T01:43:36.850Z,80.72
2023-02-22T01:46:09.704Z,80.68
2023-02-22T01:51:23.343Z,80.65
2023-02-22T01:54:14.843Z,80.63
2023-02-22T01:59:11.647Z,80.61
2023-02-22T02:04:11.174Z,80.54
2023-02-22T02:09:30.622Z,80.43
2023-02-22T02:14:27.367Z,80.38
2023-02-22T02:16:56.102Z,80.40
2023-02-22T02:19:58.862Z,80.50
2023-02-22T02:22:54.857Z,80.51
2023-02-22T02:25:49.285Z,80.53
2023-02-22T02:28:54.876Z,80.52
2023-02-22T02:36:43.898Z,80.44
2023-02-22T02:39:30.460Z,80.47
2023-02-22T02:42:03.702Z,80.43
2023-02-22T02:44:42.539Z,80.37
2023-02-22T02:47:26.192Z,80.36
2023-02-22T02:52:46.163Z,80.26
2023-02-22T02:57:41.949Z,80.22
2023-02-22T03:02:59.627Z,80.19
2023-02-22T03:05:35.586Z,80.19
2023-02-22T03:08:27.003Z,80.15
2023-02-22T03:11:13.746Z,80.14
2023-02-22T03:16:35.871Z,80.07
2023-02-22T03:19:34.976Z,80.04
2023-02-22T03:30:11.796Z,80.05
2023-02-22T03:32:44.145Z,80.06
2023-02-22T03:37:55.484Z,80.06
2023-02-22T03:40:34.997Z,80.12
2023-02-22T03:45:30.926Z,80.14
2023-02-22T03:50:29.688Z,80.10
2023-02-22T03:55:25.676Z,80.10
2023-02-22T04:00:24.382Z,80.20
2023-02-22T04:02:52.444Z,80.13
2023-02-22T04:05:20.775Z,80.10
2023-02-22T04:10:17.115Z,80.02
2023-02-22T04:15:16.165Z,79.95
2023-02-22T04:17:44.463Z,79.95
2023-02-22T04:20:14.394Z,79.89
2023-02-22T04:22:43.931Z,79.75
2023-02-22T04:25:11.752Z,79.78
2023-02-22T04:27:39.983Z,79.81
2023-02-22T04:30:09.290Z,79.78
2023-02-22T04:32:38.589Z,79.77
2023-02-22T04:35:07.675Z,79.70
2023-02-22T04:37:36.714Z,79.67
2023-02-22T04:40:07.587Z,79.79
2023-02-22T04:42:36.752Z,79.71
2023-02-22T04:47:35.851Z,79.98
2023-02-22T04:52:30.727Z,80.17
2023-02-22T04:54:58.583Z,80.29
2023-02-22T04:57:26.724Z,80.28
2023-02-22T04:59:54.450Z,80.19
2023-02-22T05:02:23.919Z,80.13
2023-02-22T05:04:51.814Z,80.01
2023-02-22T05:07:19.627Z,80.00
2023-02-22T05:09:47.503Z,79.96
2023-02-22T05:12:15.740Z,79.90
2023-02-22T05:14:44.162Z,80.06
2023-02-22T05:17:12.314Z,80.19
2023-02-22T05:19:41.637Z,80.22
2023-02-22T05:22:09.372Z,80.26
2023-02-22T05:24:38.033Z,80.26
2023-02-22T05:27:05.779Z,80.36
2023-02-22T05:29:33.384Z,80.44
2023-02-22T05:34:28.302Z,80.65
2023-02-22T05:36:56.345Z,81.21
2023-02-22T05:39:24.008Z,81.69
2023-02-22T05:41:51.965Z,82.57
2023-02-22T05:46:46.095Z,82.66
2023-02-22T05:51:40.530Z,82.58
2023-02-22T05:54:08.224Z,82.06
2023-02-22T05:56:36.222Z,80.79
2023-02-22T05:59:04.155Z,79.12
2023-02-22T06:01:31.620Z,78.62
2023-02-22T06:03:59.527Z,76.80
2023-02-22T06:06:27.642Z,75.28
2023-02-22T06:08:55.880Z,73.80
2023-02-22T06:13:53.494Z,69.64
2023-02-22T06:18:48.576Z,66.77
2023-02-22T06:23:45.282Z,64.34
2023-02-22T06:26:18.899Z,63.28
2023-02-22T06:28:47.193Z,64.15
2023-02-22T06:31:15.262Z,64.19
2023-02-22T06:33:43.467Z,63.85
2023-02-22T06:36:11.431Z,62.98
2023-02-22T06:38:39.422Z,61.80
2023-02-22T06:43:35.849Z,61.53
2023-02-22T06:46:04.084Z,62.25
2023-02-22T06:48:30.711Z,61.70
2023-02-22T06:50:58.632Z,61.68
2023-02-22T06:53:26.687Z,62.03
2023-02-22T06:55:54.869Z,62.00
2023-02-22T06:58:22.753Z,61.71
2023-02-22T07:00:50.808Z,61.32
2023-02-22T07:03:19.011Z,60.48
2023-02-22T07:05:48.346Z,61.05
2023-02-22T07:08:16.041Z,61.48
2023-02-22T07:10:44.330Z,62.04
2023-02-22T07:13:12.285Z,63.21
2023-02-22T07:15:39.950Z,63.78
2023-02-22T07:18:09.768Z,64.73
2023-02-22T07:23:16.888Z,63.12
2023-02-22T07:25:44.193Z,63.22
2023-02-22T07:28:12.616Z,62.08
2023-02-22T07:30:40.704Z,61.86
2023-02-22T07:35:47.785Z,59.85
2023-02-22T07:38:20.787Z,60.25
2023-02-22T07:40:48.990Z,59.18
2023-02-22T07:43:23.989Z,58.17
2023-02-22T07:45:56.656Z,57.38
2023-02-22T07:48:27.766Z,57.28
2023-02-22T07:50:56.180Z,56.83
2023-02-22T07:55:54.897Z,58.38
2023-02-22T07:58:26.492Z,58.52
2023-02-22T08:00:54.640Z,58.78
2023-02-22T08:05:56.019Z,58.23
2023-02-22T08:10:50.855Z,58.63
2023-02-22T08:15:46.518Z,59.38
2023-02-22T08:18:18.019Z,60.32
2023-02-22T08:20:48.110Z,60.14
2023-02-22T08:23:17.522Z,58.49
2023-02-22T08:25:45.780Z,58.43
2023-02-22T08:28:17.717Z,57.43
2023-02-22T08:30:45.890Z,57.72
2023-02-22T08:33:18.175Z,57.87
2023-02-22T08:38:28.363Z,59.55
2023-02-22T08:40:56.127Z,59.80
2023-02-22T08:43:24.463Z,59.57
2023-02-22T08:45:52.685Z,60.26
2023-02-22T08:48:21.068Z,60.57
2023-02-22T08:50:49.424Z,61.37
2023-02-22T08:53:17.987Z,60.85
2023-02-22T08:55:46.162Z,61.04
2023-02-22T08:58:13.971Z,60.41
2023-02-22T09:00:43.993Z,58.22
2023-02-22T09:05:43.291Z,54.53
2023-02-22T09:10:38.473Z,55.50
2023-02-22T09:13:06.700Z,54.22
2023-02-22T09:15:35.668Z,53.08
2023-02-22T09:20:32.394Z,53.58
2023-02-22T09:23:01.868Z,53.54
2023-02-22T09:25:29.695Z,53.79
2023-02-22T09:27:57.701Z,53.26
2023-02-22T09:30:32.649Z,54.00
2023-02-22T09:33:14.019Z,53.78
2023-02-22T09:35:45.780Z,53.15
2023-02-22T09:38:16.845Z,54.19
2023-02-22T09:40:53.815Z,54.57
2023-02-22T09:43:27.351Z,54.86
2023-02-22T09:46:27.678Z,54.80
2023-02-22T09:49:05.880Z,52.60
2023-02-22T09:51:41.618Z,54.45
2023-02-22T09:54:22.814Z,54.69
2023-02-22T09:59:21.864Z,54.08
2023-02-22T10:01:57.883Z,53.99
2023-02-22T10:04:36.647Z,54.27
2023-02-22T10:07:29.937Z,54.39
2023-02-22T10:10:02.522Z,54.19
2023-02-22T10:12:44.872Z,54.46
2023-02-22T10:15:48.291Z,54.45
2023-02-22T10:18:44.865Z,53.90
2023-02-22T10:21:23.722Z,53.34
2023-02-22T10:24:45.754Z,52.98
2023-02-22T10:30:24.536Z,53.49
2023-02-22T10:35:27.551Z,52.62
2023-02-22T10:37:59.946Z,53.00
2023-02-22T10:43:11.045Z,52.79
2023-02-22T10:45:40.398Z,52.77
2023-02-22T10:48:17.851Z,53.75
2023-02-22T10:50:48.030Z,53.12
2023-02-22T10:53:15.914Z,53.62
2023-02-22T10:56:12.480Z,53.55
2023-02-22T11:04:22.491Z,52.56
2023-02-22T11:07:20.238Z,51.75
2023-02-22T11:09:58.917Z,51.70
2023-02-22T11:15:21.658Z,51.36
2023-02-22T11:17:54.642Z,51.65
2023-02-22T11:20:34.333Z,50.72
2023-02-22T11:23:04.773Z,50.63
2023-02-22T11:30:50.643Z,51.43
2023-02-22T11:35:54.163Z,51.38
2023-02-22T11:38:25.911Z,51.62
2023-02-22T11:41:17.481Z,51.63
2023-02-22T11:43:49.544Z,51.26
2023-02-22T11:49:10.072Z,50.33
2023-02-22T11:52:07.608Z,50.84
2023-02-22T11:57:46.044Z,50.76
2023-02-22T12:00:25.501Z,51.17
2023-02-22T12:03:20.375Z,50.94
2023-02-22T12:06:24.243Z,51.64
2023-02-22T12:09:09.138Z,51.14
2023-02-22T12:12:09.332Z,51.33
2023-02-22T12:15:15.454Z,51.36
2023-02-22T12:18:02.667Z,51.33
2023-02-22T12:23:09.217Z,50.25
2023-02-22T12:25:48.065Z,50.47
2023-02-22T12:28:27.219Z,50.71
2023-02-22T12:31:15.805Z,50.91
2023-02-22T12:36:14.500Z,50.38
2023-02-22T12:41:13.511Z,49.03
2023-02-22T12:43:52.967Z,49.23
2023-02-22T12:49:04.471Z,49.40
2023-02-22T12:51:40.761Z,49.29
2023-02-22T12:54:22.008Z,49.58
2023-02-22T12:56:57.092Z,48.82
2023-02-22T12:59:50.627Z,49.10
2023-02-22T13:02:42.354Z,49.28
2023-02-22T13:05:18.447Z,49.68
2023-02-22T13:08:28.714Z,50.06
2023-02-22T13:11:19.401Z,49.78
2023-02-22T13:14:07.357Z,50.67
2023-02-22T13:16:40.445Z,50.94
2023-02-22T13:19:21.554Z,50.78
2023-02-22T13:22:12.285Z,50.85
2023-02-22T13:25:00.480Z,50.94
2023-02-22T13:29:58.458Z,49.96
2023-02-22T13:35:21.015Z,49.66
2023-02-22T13:43:29.966Z,48.64
2023-02-22T13:48:47.834Z,47.96
2023-02-22T13:51:52.096Z,47.42
2023-02-22T13:54:31.310Z,47.56
2023-02-22T13:56:59.023Z,46.79
2023-02-22T13:59:36.148Z,46.91
2023-02-22T14:02:07.394Z,46.98
2023-02-22T14:04:40.300Z,47.15
2023-02-22T14:07:30.751Z,46.94
2023-02-22T14:10:00.555Z,47.13
2023-02-22T14:12:49.227Z,47.57
2023-02-22T14:17:46.289Z,46.44
2023-02-22T14:20:27.206Z,47.23
2023-02-22T14:22:55.232Z,47.38
2023-02-22T14:28:31.297Z,46.98
2023-02-22T14:31:33.310Z,47.09
2023-02-22T14:37:03.758Z,47.93
2023-02-22T14:39:45.474Z,47.91
2023-02-22T14:42:33.826Z,47.53
2023-02-22T14:45:12.970Z,47.55
2023-02-22T14:48:09.387Z,47.71
2023-02-22T14:50:45.437Z,48.14
2023-02-22T14:56:06.368Z,48.21
2023-02-22T14:59:00.292Z,48.17
2023-02-22T15:01:47.521Z,48.26
2023-02-22T15:04:25.189Z,48.18
2023-02-22T15:06:55.134Z,48.65
2023-02-22T15:09:29.685Z,48.68
2023-02-22T15:12:08.372Z,48.50
2023-02-22T15:14:39.430Z,48.79
2023-02-22T15:17:18.492Z,48.55
2023-02-22T15:22:29.253Z,49.36
2023-02-22T15:25:02.258Z,49.65
2023-02-22T15:27:30.013Z,49.78
2023-02-22T15:30:02.583Z,50.00
2023-02-22T15:32:44.828Z,50.16
2023-02-22T15:35:21.602Z,50.31
2023-02-22T15:38:05.568Z,50.55
2023-02-22T15:40:34.749Z,50.77
2023-02-22T15:45:35.058Z,51.15
2023-02-22T15:48:03.050Z,51.53
2023-02-22T15:50:33.669Z,52.03
2023-02-22T15:53:27.051Z,52.58
2023-02-22T15:55:58.717Z,52.93
2023-02-22T16:01:06.735Z,53.87
2023-02-22T16:03:41.858Z,54.04
2023-02-22T16:08:54.789Z,54.22
2023-02-22T16:11:34.696Z,54.52
2023-02-22T16:14:07.247Z,54.58
2023-02-22T16:16:40.941Z,54.61
2023-02-22T16:19:26.253Z,54.74
2023-02-22T16:24:33.089Z,55.09
2023-02-22T16:29:45.325Z,55.49
2023-02-22T16:34:41.133Z,55.82
2023-02-22T16:37:21.493Z,56.02
2023-02-22T16:39:52.273Z,56.24
2023-02-22T16:42:22.487Z,56.36
2023-02-22T16:47:17.815Z,56.85
2023-02-22T16:49:52.197Z,57.03
2023-02-22T16:52:20.515Z,57.25
2023-02-22T16:54:51.359Z,57.41
2023-02-22T16:57:22.477Z,57.59
2023-02-22T16:59:52.267Z,57.79
2023-02-22T17:02:20.576Z,57.97
2023-02-22T17:04:51.597Z,58.17
2023-02-22T17:09:52.915Z,58.65
2023-02-22T17:12:20.848Z,58.86
2023-02-22T17:14:50.617Z,59.09
2023-02-22T17:17:18.199Z,59.15
2023-02-22T17:19:45.907Z,59.24
2023-02-22T17:24:46.241Z,59.53
2023-02-22T17:29:41.764Z,59.80
2023-02-22T17:34:40.244Z,59.94
2023-02-22T17:39:35.048Z,60.23
2023-02-22T17:42:03.042Z,60.44
2023-02-22T17:44:31.280Z,60.57
2023-02-22T17:47:10.378Z,60.83
2023-02-22T17:49:38.909Z,61.25
2023-02-22T17:52:06.972Z,61.38
2023-02-22T17:54:33.854Z,61.60
2023-02-22T17:57:01.817Z,61.72
2023-02-22T17:59:29.895Z,61.88
2023-02-22T18:01:57.542Z,62.14
2023-02-22T18:04:25.373Z,62.47
2023-02-22T18:06:53.116Z,62.65
2023-02-22T18:09:20.848Z,62.76
2023-02-22T18:11:48.714Z,62.99
2023-02-22T18:14:16.768Z,63.05
2023-02-22T18:16:46.574Z,63.19
2023-02-22T18:19:17.736Z,63.31
2023-02-22T18:21:46.163Z,63.47
2023-02-22T18:24:13.685Z,63.78
2023-02-22T18:26:41.507Z,64.06
2023-02-22T18:29:11.096Z,64.26
2023-02-22T18:31:39.118Z,64.59
2023-02-22T18:36:33.413Z,65.12
2023-02-22T18:39:01.197Z,65.72
2023-02-22T18:41:29.413Z,66.52
2023-02-22T18:43:59.366Z,66.75
2023-02-22T18:46:29.163Z,67.08
2023-02-22T18:48:59.058Z,67.29
2023-02-22T18:51:28.916Z,67.61
2023-02-22T18:56:34.202Z,67.69
2023-02-22T18:59:05.911Z,67.86
2023-02-22T19:01:40.347Z,67.75
2023-02-22T19:04:10.394Z,67.79
2023-02-22T19:09:08.115Z,68.08
2023-02-22T19:11:36.843Z,68.18
2023-02-22T19:14:07.892Z,68.44
2023-02-22T19:16:35.620Z,68.67
2023-02-22T19:19:03.485Z,68.62
2023-02-22T19:21:32.520Z,68.83
2023-02-22T19:24:04.549Z,68.90
2023-02-22T19:26:32.427Z,68.97
2023-02-22T19:29:07.509Z,69.13
2023-02-22T19:34:11.481Z,69.50
2023-02-22T19:39:06.818Z,69.77
2023-02-22T19:44:01.903Z,69.88
2023-02-22T19:48:56.226Z,70.14
2023-02-22T19:51:27.747Z,70.09
2023-02-22T19:54:05.884Z,70.11
2023-02-22T19:56:34.962Z,70.31
2023-02-22T20:01:37.462Z,70.52
2023-02-22T20:04:12.413Z,70.64
2023-02-22T20:06:42.731Z,70.85
2023-02-22T20:09:26.499Z,71.02
2023-02-22T20:11:54.634Z,71.36
2023-02-22T20:16:55.135Z,71.63
2023-02-22T20:21:52.010Z,71.48
2023-02-22T20:24:19.908Z,71.61
2023-02-22T20:26:49.095Z,71.88
2023-02-22T20:31:47.222Z,72.05
2023-02-22T20:36:43.494Z,72.20
2023-02-22T20:41:44.533Z,72.54
2023-02-22T20:44:18.480Z,72.42
2023-02-22T20:46:56.839Z,72.40
2023-02-22T20:49:26.696Z,72.37
2023-02-22T20:51:54.890Z,72.34
2023-02-22T20:54:22.935Z,72.43
2023-02-22T20:59:24.161Z,72.56
2023-02-22T21:01:52.801Z,72.54
2023-02-22T21:04:24.959Z,72.69
2023-02-22T21:06:53.508Z,72.81
2023-02-22T21:09:22.007Z,72.82
2023-02-22T21:11:51.195Z,73.04
2023-02-22T21:14:19.844Z,73.15
2023-02-22T21:16:51.703Z,73.09
2023-02-22T21:19:22.377Z,73.30
2023-02-22T21:24:21.342Z,73.33
2023-02-22T21:29:15.331Z,73.19
2023-02-22T21:31:43.370Z,73.26
2023-02-22T21:34:15.479Z,73.28
2023-02-22T21:39:18.601Z,73.47
2023-02-22T21:41:49.614Z,73.52
2023-02-22T21:44:19.637Z,73.52
2023-02-22T21:46:49.256Z,73.52
2023-02-22T21:49:18.365Z,73.61
2023-02-22T21:51:46.230Z,73.75
2023-02-22T21:54:16.286Z,73.90
2023-02-22T21:56:44.167Z,73.96
2023-02-22T21:59:17.813Z,74.03
2023-02-22T22:01:53.482Z,74.07
2023-02-22T22:04:28.792Z,74.18
2023-02-22T22:06:59.422Z,74.21
2023-02-22T22:09:30.857Z,74.26
2023-02-22T22:14:30.776Z,74.40
2023-02-22T22:19:28.616Z,74.48
2023-02-22T22:22:00.431Z,74.53
2023-02-22T22:24:33.437Z,74.54
2023-02-22T22:27:03.184Z,74.63
2023-02-22T22:29:33.147Z,74.78
2023-02-22T22:32:01.485Z,74.64
2023-02-22T22:34:29.674Z,74.66
2023-02-22T22:36:58.309Z,74.67
2023-02-22T22:39:26.792Z,74.60
2023-02-22T22:41:55.249Z,74.83
2023-02-22T22:44:26.161Z,74.80
2023-02-22T22:46:56.023Z,74.88
2023-02-22T22:51:50.544Z,74.90
2023-02-22T22:54:18.276Z,75.04
2023-02-22T22:56:46.208Z,75.07
2023-02-22T22:59:14.963Z,75.11
2023-02-22T23:01:44.439Z,75.18
2023-02-22T23:06:46.837Z,75.24
2023-02-22T23:11:43.991Z,75.36
2023-02-22T23:16:38.755Z,75.46
2023-02-22T23:21:32.537Z,75.44
2023-02-22T23:24:00.439Z,75.53
2023-02-22T23:26:28.472Z,75.58
2023-02-22T23:28:58.763Z,75.59
2023-02-22T23:31:28.321Z,75.57
2023-02-22T23:33:58.217Z,75.68
2023-02-22T23:36:26.943Z,75.70
2023-02-22T23:38:55.410Z,75.70
2023-02-22T23:41:24.704Z,75.72
2023-02-22T23:43:53.445Z,75.79
2023-02-22T23:46:21.220Z,76.02
2023-02-22T23:48:52.351Z,75.95
2023-02-22T23:51:27.419Z,75.94
2023-02-22T23:53:56.632Z,75.93
2023-02-22T23:56:28.037Z,76.00
2023-02-22T23:58:56.704Z,75.97
